createdAt,value
2019-05-21T00:00:08.364Z,15.00
2019-05-21T00:02:36.571Z,14.86
2019-05-21T00:05:05.350Z,15.08
2019-05-21T00:07:33.483Z,15.15
2019-05-21T00:10:01.837Z,15.03
2019-05-21T00:12:30.075Z,14.91
2019-05-21T00:14:58.281Z,14.99
2019-05-21T00:17:26.435Z,14.80
2019-05-21T00:19:54.713Z,14.81
2019-05-21T00:22:22.999Z,14.78
2019-05-21T00:24:51.461Z,14.72
2019-05-21T00:27:19.683Z,14.83
2019-05-21T00:30:23.358Z,14.85
2019-05-21T00:33:27.203Z,14.67
2019-05-21T00:36:35.089Z,14.60
2019-05-21T00:39:38.732Z,14.68
2019-05-21T00:42:06.330Z,14.63
2019-05-21T00:44:43.114Z,14.58
2019-05-21T00:47:13.073Z,14.74
2019-05-21T00:49:41.484Z,14.72
2019-05-21T00:52:09.768Z,14.85
2019-05-21T00:54:38.022Z,14.64
2019-05-21T00:57:06.316Z,14.67
2019-05-21T00:59:34.642Z,14.71
2019-05-21T01:02:02.871Z,14.71
2019-05-21T01:04:31.070Z,14.81
2019-05-21T01:06:59.290Z,14.66
2019-05-21T01:09:27.452Z,14.66
2019-05-21T01:11:55.820Z,14.65
2019-05-21T01:14:23.968Z,14.23
2019-05-21T01:16:52.267Z,14.23
2019-05-21T01:19:20.499Z,14.32
2019-05-21T01:21:48.615Z,14.39
2019-05-21T01:24:16.850Z,14.26
2019-05-21T01:26:45.119Z,14.38
2019-05-21T01:29:13.300Z,14.30
2019-05-21T01:31:41.598Z,14.19
2019-05-21T01:34:11.578Z,14.37
2019-05-21T01:36:39.724Z,14.43
2019-05-21T01:39:07.978Z,14.30
2019-05-21T01:41:36.216Z,14.22
2019-05-21T01:44:04.886Z,14.12
2019-05-21T01:46:33.066Z,14.27
2019-05-21T01:49:01.239Z,14.17
2019-05-21T01:51:29.441Z,14.11
2019-05-21T01:53:57.633Z,14.10
2019-05-21T01:56:25.808Z,14.13
2019-05-21T01:58:54.024Z,14.31
2019-05-21T02:01:22.214Z,14.22
2019-05-21T02:03:50.425Z,14.16
2019-05-21T02:06:18.566Z,14.09
2019-05-21T02:08:46.847Z,14.32
2019-05-21T02:11:15.115Z,14.29
2019-05-21T02:13:43.214Z,14.15
2019-05-21T02:16:11.398Z,14.20
2019-05-21T02:18:39.676Z,14.27
2019-05-21T02:21:07.908Z,14.17
2019-05-21T02:23:36.296Z,14.18
2019-05-21T02:26:04.621Z,14.10
2019-05-21T02:28:32.794Z,14.10
2019-05-21T02:31:01.614Z,14.00
2019-05-21T02:33:29.902Z,13.99
2019-05-21T02:35:58.076Z,13.98
2019-05-21T02:38:26.327Z,14.04
2019-05-21T02:40:54.494Z,14.09
2019-05-21T02:43:22.874Z,14.12
2019-05-21T02:45:51.112Z,14.07
2019-05-21T02:48:19.358Z,14.33
2019-05-21T02:50:47.679Z,14.20
2019-05-21T02:53:15.872Z,14.03
2019-05-21T02:55:44.082Z,14.05
2019-05-21T02:58:12.287Z,14.01
2019-05-21T03:01:17.730Z,14.21
2019-05-21T03:03:44.664Z,14.06
2019-05-21T03:06:14.913Z,14.02
2019-05-21T03:08:42.868Z,13.98
2019-05-21T03:11:11.268Z,14.10
2019-05-21T03:13:39.530Z,13.97
2019-05-21T03:16:07.825Z,14.01
2019-05-21T03:18:36.106Z,13.90
2019-05-21T03:21:04.406Z,14.21
2019-05-21T03:23:32.652Z,14.05
2019-05-21T03:26:00.966Z,14.40
2019-05-21T03:28:29.214Z,13.88
2019-05-21T03:30:57.586Z,13.85
2019-05-21T03:33:25.902Z,13.85
2019-05-21T03:35:54.171Z,13.82
2019-05-21T03:38:22.383Z,13.86
2019-05-21T03:40:50.590Z,13.70
2019-05-21T03:43:18.818Z,13.72
2019-05-21T03:45:47.112Z,13.77
2019-05-21T03:48:15.314Z,14.12
2019-05-21T03:50:43.488Z,13.80
2019-05-21T03:53:11.901Z,13.72
2019-05-21T03:55:40.096Z,13.75
2019-05-21T03:58:08.268Z,13.66
2019-05-21T04:00:36.544Z,13.82
2019-05-21T04:03:05.173Z,13.79
2019-05-21T04:05:33.352Z,13.80
2019-05-21T04:08:01.586Z,13.85
2019-05-21T04:10:29.910Z,13.78
2019-05-21T04:13:10.564Z,13.71
2019-05-21T04:15:47.853Z,13.71
2019-05-21T04:18:20.581Z,13.63
2019-05-21T04:20:48.880Z,13.75
2019-05-21T04:23:17.090Z,14.10
2019-05-21T04:25:45.281Z,14.09
2019-05-21T04:28:13.535Z,13.78
2019-05-21T04:30:41.821Z,13.69
2019-05-21T04:33:10.104Z,13.55
2019-05-21T04:35:38.369Z,13.61
2019-05-21T04:38:06.587Z,13.74
2019-05-21T04:40:34.869Z,13.77
2019-05-21T04:43:03.118Z,13.58
2019-05-21T04:45:31.345Z,13.59
2019-05-21T04:47:59.596Z,13.54
2019-05-21T04:50:27.797Z,13.56
2019-05-21T04:52:56.109Z,13.74
2019-05-21T04:55:24.309Z,13.81
2019-05-21T04:57:52.593Z,13.85
2019-05-21T05:00:20.878Z,13.73
2019-05-21T05:02:49.176Z,13.90
2019-05-21T05:05:17.450Z,13.94
2019-05-21T05:07:45.694Z,14.17
2019-05-21T05:10:14.359Z,13.98
2019-05-21T05:12:42.587Z,13.78
2019-05-21T05:15:10.902Z,13.67
2019-05-21T05:17:39.200Z,13.75
2019-05-21T05:20:07.400Z,14.05
2019-05-21T05:22:35.640Z,13.97
2019-05-21T05:25:04.088Z,13.62
2019-05-21T05:27:32.392Z,13.68
2019-05-21T05:30:00.652Z,13.73
2019-05-21T05:32:28.882Z,13.64
2019-05-21T05:34:57.100Z,13.83
2019-05-21T05:37:25.288Z,13.71
2019-05-21T05:39:53.621Z,13.62
2019-05-21T05:42:22.377Z,13.65
2019-05-21T05:44:50.674Z,13.61
2019-05-21T05:47:18.892Z,13.69
2019-05-21T05:49:49.988Z,13.57
2019-05-21T05:52:18.155Z,13.56
2019-05-21T05:54:46.368Z,13.78
2019-05-21T05:57:15.303Z,13.96
2019-05-21T05:59:43.479Z,13.72
2019-05-21T06:02:11.764Z,13.65
2019-05-21T06:04:39.938Z,13.88
2019-05-21T06:07:08.179Z,13.86
2019-05-21T06:09:36.353Z,13.73
2019-05-21T06:12:04.558Z,13.52
2019-05-21T06:14:32.992Z,13.73
2019-05-21T06:17:01.406Z,13.71
2019-05-21T06:19:30.082Z,13.73
2019-05-21T06:21:58.287Z,13.73
2019-05-21T06:24:26.550Z,13.85
2019-05-21T06:26:54.821Z,13.92
2019-05-21T06:29:23.071Z,13.65
2019-05-21T06:31:51.315Z,13.57
2019-05-21T06:34:19.547Z,13.65
2019-05-21T06:36:47.739Z,13.86
2019-05-21T06:39:15.981Z,13.64
2019-05-21T06:41:44.178Z,13.57
2019-05-21T06:44:12.366Z,14.15
2019-05-21T06:46:40.568Z,13.57
2019-05-21T06:49:08.827Z,11.41
2019-05-21T06:51:37.272Z,13.69
2019-05-21T06:54:06.027Z,13.52
2019-05-21T06:56:34.253Z,13.60
2019-05-21T06:59:03.713Z,13.60
2019-05-21T07:01:32.013Z,13.67
2019-05-21T07:04:00.262Z,13.77
2019-05-21T07:06:28.511Z,13.86
2019-05-21T07:08:56.759Z,13.61
2019-05-21T07:11:24.985Z,13.61
2019-05-21T07:13:53.232Z,13.64
2019-05-21T07:16:21.463Z,13.59
2019-05-21T07:18:49.704Z,13.65
2019-05-21T07:21:17.948Z,13.84
2019-05-21T07:23:46.139Z,13.74
2019-05-21T07:26:14.365Z,13.69
2019-05-21T07:28:42.583Z,13.69
2019-05-21T07:31:11.269Z,13.59
2019-05-21T07:33:39.504Z,13.66
2019-05-21T07:36:07.857Z,13.72
2019-05-21T07:38:52.006Z,13.68
2019-05-21T07:41:06.001Z,13.79
2019-05-21T07:43:34.309Z,13.64
2019-05-21T07:46:02.648Z,13.83
2019-05-21T07:48:30.876Z,13.70
2019-05-21T07:50:59.318Z,13.70
2019-05-21T07:53:27.740Z,13.65
2019-05-21T07:55:55.985Z,13.78
2019-05-21T07:58:24.297Z,13.80
2019-05-21T08:00:52.502Z,14.00
2019-05-21T08:03:20.664Z,14.09
2019-05-21T08:05:48.991Z,13.86
2019-05-21T08:08:17.227Z,13.91
2019-05-21T08:10:45.447Z,14.13
2019-05-21T08:13:13.683Z,13.96
2019-05-21T08:15:41.869Z,13.91
2019-05-21T08:18:10.178Z,13.94
2019-05-21T08:20:38.398Z,14.03
2019-05-21T08:23:06.621Z,13.87
2019-05-21T08:25:35.054Z,14.00
2019-05-21T08:28:03.284Z,14.06
2019-05-21T08:30:31.504Z,14.07
2019-05-21T08:32:59.687Z,14.08
2019-05-21T08:35:27.956Z,13.94
2019-05-21T08:37:56.129Z,14.17
2019-05-21T08:40:24.431Z,14.27
2019-05-21T08:42:52.602Z,14.15
2019-05-21T08:45:20.815Z,14.27
2019-05-21T08:47:49.152Z,14.25
2019-05-21T08:50:17.440Z,14.27
2019-05-21T08:52:45.693Z,14.36
2019-05-21T08:55:14.502Z,14.36
2019-05-21T08:57:42.715Z,14.46
2019-05-21T09:00:12.581Z,14.77
2019-05-21T09:02:40.902Z,14.67
2019-05-21T09:05:09.378Z,14.48
2019-05-21T09:07:37.590Z,14.56
2019-05-21T09:10:07.001Z,14.86
2019-05-21T09:12:35.293Z,14.84
2019-05-21T09:15:03.601Z,14.72
2019-05-21T09:17:31.782Z,14.60
2019-05-21T09:20:00.058Z,14.57
2019-05-21T09:22:28.402Z,14.47
2019-05-21T09:24:56.612Z,14.74
2019-05-21T09:27:24.932Z,14.42
2019-05-21T09:29:53.167Z,14.73
2019-05-21T09:32:21.378Z,14.53
2019-05-21T09:34:49.672Z,14.40
2019-05-21T09:37:20.025Z,14.44
2019-05-21T09:39:47.856Z,14.52
2019-05-21T09:42:16.053Z,14.50
2019-05-21T09:44:44.409Z,14.69
2019-05-21T09:47:12.573Z,14.63
2019-05-21T09:49:41.166Z,14.37
2019-05-21T09:52:09.330Z,14.57
2019-05-21T09:54:39.288Z,14.35
2019-05-21T09:57:09.551Z,14.49
2019-05-21T09:59:47.819Z,14.32
2019-05-21T10:02:22.605Z,14.54
2019-05-21T10:04:50.805Z,14.63
2019-05-21T10:07:36.292Z,14.41
2019-05-21T10:09:48.972Z,14.42
2019-05-21T10:12:17.242Z,14.67
2019-05-21T10:14:45.613Z,14.75
2019-05-21T10:17:13.844Z,14.58
2019-05-21T10:19:42.211Z,14.57
2019-05-21T10:22:10.778Z,14.33
2019-05-21T10:24:39.163Z,14.83
2019-05-21T10:27:07.323Z,14.44
2019-05-21T10:29:35.610Z,14.57
2019-05-21T10:32:03.879Z,14.58
2019-05-21T10:34:32.527Z,14.93
2019-05-21T10:37:00.712Z,14.50
2019-05-21T10:39:29.039Z,14.64
2019-05-21T10:41:57.189Z,14.73
2019-05-21T10:44:25.357Z,14.51
2019-05-21T10:46:53.580Z,14.60
2019-05-21T10:49:21.765Z,14.44
2019-05-21T10:51:49.989Z,14.68
2019-05-21T10:54:18.275Z,14.62
2019-05-21T10:56:48.264Z,14.54
2019-05-21T10:59:16.616Z,14.71
2019-05-21T11:01:54.507Z,15.32
2019-05-21T11:04:33.145Z,14.71
2019-05-21T11:07:01.376Z,14.68
2019-05-21T11:09:29.587Z,14.58
2019-05-21T11:11:57.795Z,14.85
2019-05-21T11:14:25.943Z,14.92
2019-05-21T11:16:54.122Z,14.72
2019-05-21T11:19:22.311Z,15.18
2019-05-21T11:21:50.503Z,14.71
2019-05-21T11:24:19.063Z,14.81
2019-05-21T11:26:47.285Z,14.94
2019-05-21T11:29:15.488Z,15.02
2019-05-21T11:31:56.547Z,15.15
2019-05-21T11:34:16.575Z,14.64
2019-05-21T11:36:45.012Z,14.80
2019-05-21T11:39:13.259Z,15.01
2019-05-21T11:41:41.553Z,15.08
2019-05-21T11:44:09.769Z,15.04
2019-05-21T11:46:38.047Z,14.85
2019-05-21T11:49:06.259Z,14.92
2019-05-21T11:51:34.536Z,14.84
2019-05-21T11:54:02.811Z,14.83
2019-05-21T11:56:31.047Z,15.08
2019-05-21T11:58:59.275Z,14.90
2019-05-21T12:01:27.444Z,14.82
2019-05-21T12:03:55.782Z,15.03
2019-05-21T12:06:23.908Z,14.79
2019-05-21T12:08:56.731Z,15.25
2019-05-21T12:11:22.088Z,14.88
2019-05-21T12:13:50.298Z,14.80
2019-05-21T12:16:18.448Z,14.59
2019-05-21T12:18:46.737Z,14.88
2019-05-21T12:21:14.945Z,14.95
2019-05-21T12:23:43.157Z,15.01
2019-05-21T12:26:11.349Z,15.07
2019-05-21T12:28:39.531Z,15.01
2019-05-21T12:31:07.777Z,14.92
2019-05-21T12:33:35.970Z,15.48
2019-05-21T12:36:04.226Z,15.13
2019-05-21T12:38:32.460Z,14.60
2019-05-21T12:41:00.648Z,15.05
2019-05-21T12:43:28.838Z,14.90
2019-05-21T12:45:57.047Z,14.42
2019-05-21T12:48:25.218Z,14.52
2019-05-21T12:50:53.401Z,14.68
2019-05-21T12:53:21.552Z,14.56
2019-05-21T12:55:49.902Z,14.28
2019-05-21T12:58:18.210Z,14.43
2019-05-21T13:00:46.383Z,14.33
2019-05-21T13:03:14.540Z,14.12
2019-05-21T13:05:42.764Z,14.22
2019-05-21T13:08:10.906Z,14.12
2019-05-21T13:10:39.188Z,14.07
2019-05-21T13:13:07.594Z,14.20
2019-05-21T13:15:36.788Z,14.21
2019-05-21T13:18:05.189Z,14.07
2019-05-21T13:20:33.522Z,14.18
2019-05-21T13:23:01.806Z,13.80
2019-05-21T13:25:30.080Z,13.72
2019-05-21T13:27:58.413Z,14.43
2019-05-21T13:30:26.680Z,14.71
2019-05-21T13:32:55.149Z,14.95
2019-05-21T13:35:23.461Z,14.34
2019-05-21T13:37:51.691Z,14.06
2019-05-21T13:40:20.238Z,14.18
2019-05-21T13:42:48.462Z,14.41
2019-05-21T13:45:16.810Z,14.44
2019-05-21T13:47:45.031Z,14.73
2019-05-21T13:50:14.456Z,14.48
2019-05-21T13:52:42.845Z,15.40
2019-05-21T13:55:11.286Z,15.34
2019-05-21T13:57:39.820Z,14.40
2019-05-21T14:00:10.717Z,14.95
2019-05-21T14:02:39.061Z,14.61
2019-05-21T14:05:07.367Z,14.65
2019-05-21T14:07:35.596Z,14.61
2019-05-21T14:10:14.049Z,14.94
2019-05-21T14:12:33.932Z,15.02
2019-05-21T14:15:02.141Z,15.05
2019-05-21T14:17:30.330Z,15.29
2019-05-21T14:19:58.613Z,15.79
2019-05-21T14:22:26.765Z,15.62
2019-05-21T14:24:55.113Z,15.17
2019-05-21T14:27:23.248Z,14.61
2019-05-21T14:29:51.464Z,14.36
2019-05-21T14:32:19.708Z,14.99
2019-05-21T14:35:00.943Z,14.12
2019-05-21T14:37:17.803Z,14.66
2019-05-21T14:39:46.073Z,15.01
2019-05-21T14:42:14.283Z,14.21
2019-05-21T14:44:42.428Z,14.77
2019-05-21T14:47:10.595Z,14.78
2019-05-21T14:49:38.812Z,14.52
2019-05-21T14:52:07.387Z,14.08
2019-05-21T14:54:35.804Z,14.26
2019-05-21T14:57:07.105Z,13.86
2019-05-21T14:59:35.313Z,14.09
2019-05-21T15:02:03.583Z,13.72
2019-05-21T15:04:32.041Z,13.59
2019-05-21T15:07:01.811Z,13.85
2019-05-21T15:09:30.019Z,13.58
2019-05-21T15:11:58.147Z,13.58
2019-05-21T15:14:26.431Z,13.56
2019-05-21T15:16:54.680Z,13.71
2019-05-21T15:19:22.875Z,13.98
2019-05-21T15:21:53.844Z,13.93
2019-05-21T15:24:22.018Z,13.90
2019-05-21T15:26:50.421Z,14.25
2019-05-21T15:29:18.702Z,13.95
2019-05-21T15:31:46.944Z,14.17
2019-05-21T15:34:15.154Z,14.36
2019-05-21T15:36:43.718Z,14.12
2019-05-21T15:39:11.963Z,14.25
2019-05-21T15:41:40.165Z,14.65
2019-05-21T15:44:08.393Z,14.26
2019-05-21T15:46:47.632Z,14.22
2019-05-21T15:49:06.478Z,14.40
2019-05-21T15:51:34.702Z,14.48
2019-05-21T15:54:02.906Z,14.40
2019-05-21T15:56:31.102Z,14.32
2019-05-21T15:58:59.351Z,14.36
2019-05-21T16:01:27.517Z,15.07
2019-05-21T16:03:55.818Z,14.89
2019-05-21T16:06:24.147Z,14.59
2019-05-21T16:08:52.444Z,14.96
2019-05-21T16:11:28.380Z,14.35
2019-05-21T16:13:50.891Z,14.97
2019-05-21T16:16:19.109Z,14.86
2019-05-21T16:18:47.401Z,14.82
2019-05-21T16:21:15.789Z,14.25
2019-05-21T16:23:43.978Z,14.96
2019-05-21T16:26:12.174Z,14.32
2019-05-21T16:28:40.410Z,14.28
2019-05-21T16:31:08.623Z,14.73
2019-05-21T16:33:36.968Z,15.27
2019-05-21T16:36:05.280Z,15.25
2019-05-21T16:38:33.462Z,14.50
2019-05-21T16:41:01.918Z,14.24
2019-05-21T16:43:30.214Z,14.48
2019-05-21T16:45:58.558Z,14.49
2019-05-21T16:48:26.788Z,14.86
2019-05-21T16:50:55.031Z,14.58
2019-05-21T16:53:23.204Z,14.45
2019-05-21T16:55:51.534Z,14.58
2019-05-21T16:58:19.807Z,14.43
2019-05-21T17:00:48.020Z,14.35
2019-05-21T17:03:16.355Z,14.08
2019-05-21T17:05:44.572Z,14.33
2019-05-21T17:08:13.048Z,14.22
2019-05-21T17:10:41.430Z,14.11
2019-05-21T17:13:09.754Z,14.72
2019-05-21T17:15:37.957Z,14.75
2019-05-21T17:18:06.206Z,14.95
2019-05-21T17:20:34.678Z,14.54
2019-05-21T17:23:03.053Z,14.48
2019-05-21T17:25:31.456Z,15.05
2019-05-21T17:27:59.764Z,14.66
2019-05-21T17:30:27.914Z,14.49
2019-05-21T17:32:56.132Z,14.51
2019-05-21T17:35:24.456Z,14.31
2019-05-21T17:37:52.640Z,14.54
2019-05-21T17:40:21.121Z,14.36
2019-05-21T17:42:49.277Z,14.63
2019-05-21T17:45:17.652Z,14.13
2019-05-21T17:47:45.922Z,14.57
2019-05-21T17:50:14.454Z,14.68
2019-05-21T17:52:43.113Z,14.17
2019-05-21T17:55:11.856Z,14.37
2019-05-21T17:57:40.389Z,14.22
2019-05-21T18:00:09.559Z,14.72
2019-05-21T18:02:37.767Z,14.29
2019-05-21T18:05:08.396Z,14.21
2019-05-21T18:07:37.027Z,14.47
2019-05-21T18:10:06.151Z,14.72
2019-05-21T18:12:34.663Z,14.30
2019-05-21T18:15:03.292Z,14.23
2019-05-21T18:17:32.940Z,14.48
2019-05-21T18:20:03.167Z,14.36
2019-05-21T18:22:32.178Z,14.23
2019-05-21T18:25:00.560Z,14.65
2019-05-21T18:27:29.215Z,14.52
2019-05-21T18:29:57.576Z,14.66
2019-05-21T18:32:25.915Z,14.34
2019-05-21T18:34:54.094Z,14.33
2019-05-21T18:37:22.546Z,14.30
2019-05-21T18:39:50.736Z,14.39
2019-05-21T18:42:22.227Z,14.25
2019-05-21T18:44:49.067Z,14.19
2019-05-21T18:47:17.298Z,14.31
2019-05-21T18:49:45.586Z,14.39
2019-05-21T18:52:13.819Z,14.57
2019-05-21T18:54:42.081Z,14.52
2019-05-21T18:57:10.287Z,14.56
2019-05-21T18:59:39.053Z,14.32
2019-05-21T19:02:07.917Z,14.44
2019-05-21T19:04:36.614Z,14.37
2019-05-21T19:07:04.992Z,14.37
2019-05-21T19:09:33.415Z,14.43
2019-05-21T19:12:02.037Z,14.21
2019-05-21T19:14:30.405Z,14.20
2019-05-21T19:16:58.725Z,14.25
2019-05-21T19:19:27.090Z,14.16
2019-05-21T19:21:55.737Z,14.20
2019-05-21T19:24:23.994Z,14.30
2019-05-21T19:26:52.210Z,14.18
2019-05-21T19:29:20.428Z,14.07
2019-05-21T19:31:49.416Z,14.07
2019-05-21T19:34:17.772Z,14.28
2019-05-21T19:36:46.063Z,14.26
2019-05-21T19:39:14.269Z,14.15
2019-05-21T19:41:42.536Z,14.20
2019-05-21T19:44:10.826Z,14.09
2019-05-21T19:46:39.026Z,14.26
2019-05-21T19:49:07.236Z,14.36
2019-05-21T19:51:35.561Z,14.07
2019-05-21T19:54:03.915Z,14.21
2019-05-21T19:56:32.191Z,14.13
2019-05-21T19:59:00.466Z,14.01
2019-05-21T20:01:29.159Z,13.88
2019-05-21T20:03:57.375Z,14.13
2019-05-21T20:06:26.939Z,14.00
2019-05-21T20:08:55.903Z,13.91
2019-05-21T20:11:31.626Z,13.92
2019-05-21T20:13:59.925Z,14.20
2019-05-21T20:16:28.683Z,13.92
2019-05-21T20:18:57.022Z,13.81
2019-05-21T20:21:25.341Z,13.88
2019-05-21T20:23:53.643Z,14.07
2019-05-21T20:26:23.683Z,13.99
2019-05-21T20:28:51.899Z,13.83
2019-05-21T20:31:20.219Z,13.86
2019-05-21T20:33:50.126Z,13.73
2019-05-21T20:36:18.444Z,13.85
2019-05-21T20:38:47.646Z,13.90
2019-05-21T20:41:17.745Z,13.69
2019-05-21T20:43:58.235Z,13.70
2019-05-21T20:46:16.247Z,13.89
2019-05-21T20:48:44.836Z,13.71
2019-05-21T20:51:13.265Z,13.67
2019-05-21T20:53:41.421Z,13.71
2019-05-21T20:56:09.734Z,13.70
2019-05-21T20:58:37.982Z,13.71
2019-05-21T21:01:08.861Z,13.55
2019-05-21T21:03:37.934Z,13.55
2019-05-21T21:06:06.227Z,13.65
2019-05-21T21:08:36.489Z,13.63
2019-05-21T21:11:05.146Z,13.49
2019-05-21T21:13:33.736Z,13.48
2019-05-21T21:18:52.967Z,13.52
2019-05-21T21:21:21.218Z,13.57
2019-05-21T21:23:51.278Z,13.74
2019-05-21T21:26:19.955Z,13.62
2019-05-21T21:28:48.549Z,13.60
2019-05-21T21:31:16.756Z,13.53
2019-05-21T21:33:45.072Z,13.47
2019-05-21T21:36:13.278Z,13.40
2019-05-21T21:38:41.934Z,13.42
2019-05-21T21:41:10.223Z,13.35
2019-05-21T21:43:38.545Z,13.34
2019-05-21T21:46:07.197Z,13.30
2019-05-21T21:48:35.523Z,13.33
2019-05-21T21:51:04.404Z,13.40
2019-05-21T21:53:32.671Z,13.20
2019-05-21T21:56:00.879Z,13.32
2019-05-21T21:58:29.957Z,13.19
2019-05-21T22:01:38.783Z,13.37
2019-05-21T22:04:09.002Z,13.31
2019-05-21T22:06:40.785Z,13.21
2019-05-21T22:09:28.996Z,13.28
2019-05-21T22:11:58.102Z,13.31
2019-05-21T22:14:26.604Z,13.27
2019-05-21T22:16:55.609Z,13.29
2019-05-21T22:19:23.962Z,13.13
2019-05-21T22:21:52.825Z,13.21
2019-05-21T22:24:21.565Z,13.19
2019-05-21T22:26:50.470Z,13.17
2019-05-21T22:29:18.884Z,13.39
2019-05-21T22:31:47.232Z,13.15
2019-05-21T22:34:15.750Z,13.26
2019-05-21T22:36:43.979Z,13.30
2019-05-21T22:39:24.010Z,13.18
2019-05-21T22:41:52.159Z,13.11
2019-05-21T22:44:20.338Z,13.31
2019-05-21T22:46:49.183Z,13.44
2019-05-21T22:49:17.315Z,13.21
2019-05-21T22:51:45.515Z,13.04
2019-05-21T22:54:13.652Z,13.18
2019-05-21T22:56:41.819Z,13.11
2019-05-21T22:59:09.982Z,13.03
2019-05-21T23:01:38.530Z,13.16
2019-05-21T23:04:07.081Z,13.03
2019-05-21T23:06:35.471Z,12.94
2019-05-21T23:09:24.111Z,13.04
2019-05-21T23:11:52.308Z,12.91
2019-05-21T23:14:20.464Z,13.02
2019-05-21T23:16:48.685Z,12.96
2019-05-21T23:19:18.895Z,13.22
2019-05-21T23:21:47.500Z,13.08
2019-05-21T23:24:21.294Z,12.85
2019-05-21T23:26:49.498Z,12.92
2019-05-21T23:29:18.501Z,12.84
2019-05-21T23:31:47.197Z,12.83
2019-05-21T23:34:16.495Z,12.90
2019-05-21T23:36:47.559Z,12.95
2019-05-21T23:39:21.372Z,12.81
2019-05-21T23:41:49.608Z,13.11
2019-05-21T23:44:17.987Z,12.82
2019-05-21T23:46:46.268Z,12.91
2019-05-21T23:49:14.467Z,12.77
2019-05-21T23:51:42.617Z,13.11
2019-05-21T23:54:11.227Z,13.06
2019-05-21T23:56:39.369Z,12.78
2019-05-21T23:59:07.634Z,12.82
